createdAt,value
2023-03-12T00:00:45.880Z,1009.34
2023-03-12T00:02:30.919Z,1009.33
2023-03-12T00:04:15.955Z,1009.31
2023-03-12T00:06:09.944Z,1009.3
2023-03-12T00:07:45.912Z,1009.35
2023-03-12T00:09:31.244Z,1009.29
2023-03-12T00:11:15.909Z,1009.31
2023-03-12T00:13:01.231Z,1009.23
2023-03-12T00:14:45.999Z,1009.28
2023-03-12T00:16:30.916Z,1009.34
2023-03-12T00:18:15.915Z,1009.24
2023-03-12T00:20:00.960Z,1009.2
2023-03-12T00:21:46.223Z,1009.17
2023-03-12T00:23:31.566Z,1009.15
2023-03-12T00:25:15.976Z,1009.21
2023-03-12T00:27:00.960Z,1009.19
2023-03-12T00:28:45.922Z,1009.18
2023-03-12T00:30:31.003Z,1009.21
2023-03-12T00:32:16.259Z,1009.18
2023-03-12T00:34:00.937Z,1009.15
2023-03-12T00:35:46.002Z,1009.1
2023-03-12T00:37:30.959Z,1009.13
2023-03-12T00:39:15.955Z,1009.07
2023-03-12T00:41:00.999Z,1009.02
2023-03-12T00:42:46.001Z,1009.11
2023-03-12T00:44:30.941Z,1009.04
2023-03-12T00:46:16.041Z,1008.95
2023-03-12T00:48:00.952Z,1008.88
2023-03-12T00:49:46.266Z,1008.9
2023-03-12T00:51:30.997Z,1008.86
2023-03-12T00:53:15.960Z,1009
2023-03-12T00:55:01.281Z,1008.85
2023-03-12T00:56:46.018Z,1008.87
2023-03-12T00:58:30.956Z,1008.8
2023-03-12T01:00:16.000Z,1008.85
2023-03-12T01:02:01.030Z,1008.76
2023-03-12T01:03:46.039Z,1008.75
2023-03-12T01:05:31.561Z,1008.65
2023-03-12T01:07:16.001Z,1008.7
2023-03-12T01:09:00.984Z,1008.71
2023-03-12T01:10:45.976Z,1008.75
2023-03-12T01:12:31.027Z,1008.72
2023-03-12T01:14:15.995Z,1008.64
2023-03-12T01:16:01.027Z,1008.66
2023-03-12T01:17:46.057Z,1008.69
2023-03-12T01:19:30.987Z,1008.58
2023-03-12T01:21:15.995Z,1008.58
2023-03-12T01:23:01.079Z,1008.55
2023-03-12T01:24:46.020Z,1008.54
2023-03-12T01:26:31.026Z,1008.48
2023-03-12T01:28:16.050Z,1008.49
2023-03-12T01:30:01.063Z,1008.46
2023-03-12T01:31:46.155Z,1008.49
2023-03-12T01:33:31.097Z,1008.45
2023-03-12T01:35:16.059Z,1008.39
2023-03-12T01:37:01.033Z,1008.27
2023-03-12T01:38:46.065Z,1008.32
2023-03-12T01:40:31.023Z,1008.22
2023-03-12T01:42:16.017Z,1008.29
2023-03-12T01:44:01.131Z,1008.37
2023-03-12T01:45:46.084Z,1008.39
2023-03-12T01:47:31.036Z,1008.39
2023-03-12T01:49:16.118Z,1008.45
2023-03-12T01:51:01.040Z,1008.3
2023-03-12T01:52:46.050Z,1008.38
2023-03-12T01:54:31.124Z,1008.43
2023-03-12T01:56:16.041Z,1008.39
2023-03-12T01:58:01.057Z,1008.44
2023-03-12T01:59:46.097Z,1008.44
2023-03-12T02:01:31.117Z,1008.29
2023-03-12T02:03:16.024Z,1008.32
2023-03-12T02:05:01.109Z,1008.26
2023-03-12T02:06:46.053Z,1008.23
2023-03-12T02:08:31.085Z,1008.09
2023-03-12T02:10:16.114Z,1008.14
2023-03-12T02:12:01.074Z,1008.02
2023-03-12T02:13:46.044Z,1008.01
2023-03-12T02:15:31.117Z,1008.03
2023-03-12T02:17:16.060Z,1008.01
2023-03-12T02:19:01.073Z,1007.94
2023-03-12T02:20:46.183Z,1008.02
2023-03-12T02:22:31.067Z,1007.98
2023-03-12T02:24:16.116Z,1008.03
2023-03-12T02:26:01.107Z,1008.07
2023-03-12T02:27:46.161Z,1008
2023-03-12T02:29:31.140Z,1008.1
2023-03-12T02:31:16.183Z,1008.09
2023-03-12T02:33:01.094Z,1008.11
2023-03-12T02:34:46.107Z,1008.05
2023-03-12T02:36:31.202Z,1008.08
2023-03-12T02:38:16.106Z,1008
2023-03-12T02:40:01.153Z,1007.98
2023-03-12T02:41:46.132Z,1007.98
2023-03-12T02:43:31.117Z,1007.82
2023-03-12T02:45:16.104Z,1007.83
2023-03-12T02:47:01.145Z,1007.86
2023-03-12T02:48:46.130Z,1007.82
2023-03-12T02:50:31.133Z,1007.67
2023-03-12T02:52:16.156Z,1007.72
2023-03-12T02:54:01.124Z,1007.87
2023-03-12T02:55:46.099Z,1007.83
2023-03-12T02:57:31.164Z,1007.7
2023-03-12T02:59:16.104Z,1007.63
2023-03-12T03:01:01.241Z,1007.61
2023-03-12T03:02:46.157Z,1007.66
2023-03-12T03:04:31.174Z,1007.6
2023-03-12T03:06:16.210Z,1007.56
2023-03-12T03:08:01.212Z,1007.57
2023-03-12T03:09:46.142Z,1007.57
2023-03-12T03:11:31.156Z,1007.59
2023-03-12T03:13:16.193Z,1007.55
2023-03-12T03:15:01.163Z,1007.56
2023-03-12T03:16:46.145Z,1007.59
2023-03-12T03:18:31.172Z,1007.62
2023-03-12T03:20:16.159Z,1007.62
2023-03-12T03:22:01.173Z,1007.56
2023-03-12T03:23:46.225Z,1007.6
2023-03-12T03:25:31.205Z,1007.52
2023-03-12T03:27:16.154Z,1007.51
2023-03-12T03:29:01.181Z,1007.43
2023-03-12T03:30:46.157Z,1007.39
2023-03-12T03:32:31.163Z,1007.48
2023-03-12T03:34:16.202Z,1007.57
2023-03-12T03:36:01.176Z,1007.51
2023-03-12T03:37:46.142Z,1007.45
2023-03-12T03:39:31.213Z,1007.43
2023-03-12T03:41:16.197Z,1007.45
2023-03-12T03:43:01.176Z,1007.4
2023-03-12T03:44:46.179Z,1007.38
2023-03-12T03:46:31.227Z,1007.43
2023-03-12T03:48:16.162Z,1007.41
2023-03-12T03:50:01.226Z,1007.47
2023-03-12T03:51:46.143Z,1007.45
2023-03-12T03:53:31.188Z,1007.45
2023-03-12T03:55:16.208Z,1007.39
2023-03-12T03:57:01.217Z,1007.42
2023-03-12T03:58:46.485Z,1007.38
2023-03-12T04:00:31.321Z,1007.34
2023-03-12T04:02:16.185Z,1007.53
2023-03-12T04:04:01.177Z,1007.44
2023-03-12T04:05:46.286Z,1007.5
2023-03-12T04:07:31.484Z,1007.42
2023-03-12T04:09:16.207Z,1007.46
2023-03-12T04:11:01.276Z,1007.31
2023-03-12T04:12:46.198Z,1007.4
2023-03-12T04:14:31.194Z,1007.33
2023-03-12T04:16:16.304Z,1007.39
2023-03-12T04:18:01.526Z,1007.37
2023-03-12T04:19:46.202Z,1007.35
2023-03-12T04:21:31.254Z,1007.32
2023-03-12T04:23:16.229Z,1007.36
2023-03-12T04:25:01.222Z,1007.32
2023-03-12T04:26:46.325Z,1007.32
2023-03-12T04:28:31.202Z,1007.34
2023-03-12T04:30:16.231Z,1007.24
2023-03-12T04:32:01.248Z,1007.24
2023-03-12T04:33:46.224Z,1007.18
2023-03-12T04:35:31.229Z,1007.13
2023-03-12T04:37:16.334Z,1007.14
2023-03-12T04:39:01.254Z,1007.21
2023-03-12T04:40:46.233Z,1007.11
2023-03-12T04:42:31.614Z,1007.11
2023-03-12T04:44:16.248Z,1007.11
2023-03-12T04:46:01.279Z,1007.08
2023-03-12T04:47:46.350Z,1007.05
2023-03-12T04:49:31.547Z,1007.04
2023-03-12T04:51:16.315Z,1007.04
2023-03-12T04:53:01.403Z,1007.11
2023-03-12T04:54:48.090Z,1006.9
2023-03-12T04:56:31.253Z,1006.94
2023-03-12T04:58:16.336Z,1006.95
2023-03-12T05:00:01.253Z,1006.97
2023-03-12T05:01:46.260Z,1006.86
2023-03-12T05:03:31.362Z,1006.85
2023-03-12T05:05:16.265Z,1006.69
2023-03-12T05:07:01.279Z,1006.87
2023-03-12T05:08:46.345Z,1006.85
2023-03-12T05:10:31.262Z,1006.81
2023-03-12T05:12:16.272Z,1006.82
2023-03-12T05:14:01.348Z,1006.7
2023-03-12T05:15:46.284Z,1006.55
2023-03-12T05:17:31.297Z,1006.69
2023-03-12T05:19:16.411Z,1006.75
2023-03-12T05:21:01.262Z,1006.54
2023-03-12T05:22:46.296Z,1006.55
2023-03-12T05:24:31.372Z,1006.5
2023-03-12T05:26:16.926Z,1006.44
2023-03-12T05:28:01.337Z,1006.48
2023-03-12T05:29:46.383Z,1006.49
2023-03-12T05:31:31.352Z,1006.48
2023-03-12T05:33:16.296Z,1006.53
2023-03-12T05:35:01.366Z,1006.49
2023-03-12T05:36:46.305Z,1006.5
2023-03-12T05:38:31.347Z,1006.45
2023-03-12T05:40:16.340Z,1006.45
2023-03-12T05:42:01.349Z,1006.4
2023-03-12T05:43:46.371Z,1006.42
2023-03-12T05:45:31.450Z,1006.41
2023-03-12T05:47:16.321Z,1006.25
2023-03-12T05:49:01.360Z,1006.14
2023-03-12T05:50:46.355Z,1006.11
2023-03-12T05:52:31.328Z,1005.99
2023-03-12T05:54:16.350Z,1005.96
2023-03-12T05:56:01.394Z,1006.02
2023-03-12T05:57:46.338Z,1005.9
2023-03-12T05:59:31.403Z,1005.91
2023-03-12T06:01:16.381Z,1005.91
2023-03-12T06:03:01.350Z,1005.88
2023-03-12T06:04:46.355Z,1005.95
2023-03-12T06:06:31.421Z,1005.95
2023-03-12T06:08:16.405Z,1006.07
2023-03-12T06:10:01.372Z,1005.97
2023-03-12T06:11:46.417Z,1005.95
2023-03-12T06:13:31.350Z,1005.96
2023-03-12T06:15:16.342Z,1005.83
2023-03-12T06:17:01.610Z,1005.98
2023-03-12T06:18:46.346Z,1005.98
2023-03-12T06:20:31.391Z,1006.07
2023-03-12T06:22:16.413Z,1006.01
2023-03-12T06:24:01.370Z,1006.08
2023-03-12T06:25:46.412Z,1005.97
2023-03-12T06:27:31.476Z,1005.89
2023-03-12T06:29:16.360Z,1005.92
2023-03-12T06:31:01.383Z,1005.98
2023-03-12T06:32:46.508Z,1006
2023-03-12T06:34:31.391Z,1006.01
2023-03-12T06:36:16.361Z,1006.02
2023-03-12T06:38:01.467Z,1005.98
2023-03-12T06:39:46.372Z,1006.08
2023-03-12T06:41:31.391Z,1005.92
2023-03-12T06:43:16.430Z,1005.93
2023-03-12T06:45:01.398Z,1005.81
2023-03-12T06:46:46.460Z,1005.9
2023-03-12T06:48:31.474Z,1005.96
2023-03-12T06:50:16.408Z,1005.99
2023-03-12T06:52:02.331Z,1006.08
2023-03-12T06:53:46.464Z,1005.89
2023-03-12T06:55:31.423Z,1005.93
2023-03-12T06:57:16.418Z,1005.93
2023-03-12T06:59:01.495Z,1005.94
2023-03-12T07:00:46.406Z,1005.81
2023-03-12T07:02:31.504Z,1005.91
2023-03-12T07:04:16.514Z,1005.88
2023-03-12T07:06:01.421Z,1005.9
2023-03-12T07:07:46.457Z,1005.93
2023-03-12T07:09:31.476Z,1005.83
2023-03-12T07:11:16.470Z,1005.89
2023-03-12T07:13:01.424Z,1005.89
2023-03-12T07:14:46.504Z,1005.74
2023-03-12T07:16:31.550Z,1005.77
2023-03-12T07:18:16.450Z,1005.78
2023-03-12T07:20:01.535Z,1005.76
2023-03-12T07:21:46.432Z,1005.74
2023-03-12T07:23:31.521Z,1005.77
2023-03-12T07:25:18.615Z,1005.86
2023-03-12T07:27:01.471Z,1005.81
2023-03-12T07:28:46.454Z,1005.72
2023-03-12T07:30:31.495Z,1005.86
2023-03-12T07:32:16.543Z,1005.81
2023-03-12T07:34:01.585Z,1005.79
2023-03-12T07:35:48.614Z,1005.72
2023-03-12T07:37:31.485Z,1005.72
2023-03-12T07:39:16.459Z,1005.71
2023-03-12T07:41:01.594Z,1005.67
2023-03-12T07:42:46.896Z,1005.73
2023-03-12T07:44:31.585Z,1005.64
2023-03-12T07:46:16.605Z,1005.66
2023-03-12T07:48:01.600Z,1005.7
2023-03-12T07:49:47.094Z,1005.61
2023-03-12T07:51:31.587Z,1005.59
2023-03-12T07:53:16.512Z,1005.5
2023-03-12T07:55:01.537Z,1005.55
2023-03-12T07:56:46.645Z,1005.63
2023-03-12T07:58:31.672Z,1005.6
2023-03-12T08:00:16.551Z,1005.59
2023-03-12T08:02:02.640Z,1005.58
2023-03-12T08:03:46.641Z,1005.56
2023-03-12T08:05:31.643Z,1005.61
2023-03-12T08:07:16.614Z,1005.64
2023-03-12T08:09:01.483Z,1005.69
2023-03-12T08:10:46.710Z,1005.65
2023-03-12T08:12:31.516Z,1005.54
2023-03-12T08:14:16.539Z,1005.61
2023-03-12T08:16:01.611Z,1005.55
2023-03-12T08:17:46.670Z,1005.47
2023-03-12T08:19:31.496Z,1005.48
2023-03-12T08:21:16.645Z,1005.61
2023-03-12T08:23:01.546Z,1005.43
2023-03-12T08:24:46.528Z,1005.54
2023-03-12T08:26:31.549Z,1005.56
2023-03-12T08:28:16.571Z,1005.49
2023-03-12T08:30:01.522Z,1005.56
2023-03-12T08:32:01.732Z,1005.49
2023-03-12T08:33:31.567Z,1005.5
2023-03-12T08:35:16.514Z,1005.48
2023-03-12T08:37:01.570Z,1005.54
2023-03-12T08:38:46.603Z,1005.44
2023-03-12T08:40:31.520Z,1005.48
2023-03-12T08:42:16.530Z,1005.39
2023-03-12T08:44:01.582Z,1005.28
2023-03-12T08:45:46.598Z,1005.34
2023-03-12T08:47:31.592Z,1005.18
2023-03-12T08:49:16.612Z,1005.29
2023-03-12T08:51:01.553Z,1005.29
2023-03-12T08:52:46.575Z,1005.28
2023-03-12T08:54:31.615Z,1005.29
2023-03-12T08:56:16.560Z,1005.32
2023-03-12T08:58:01.546Z,1005.37
2023-03-12T08:59:46.636Z,1005.37
2023-03-12T09:01:31.578Z,1005.39
2023-03-12T09:03:16.640Z,1005.32
2023-03-12T09:05:01.636Z,1005.45
2023-03-12T09:06:46.565Z,1005.49
2023-03-12T09:08:31.573Z,1005.42
2023-03-12T09:10:16.670Z,1005.39
2023-03-12T09:12:01.579Z,1005.41
2023-03-12T09:14:33.729Z,1005.43
2023-03-12T09:15:31.622Z,1005.41
2023-03-12T09:17:16.613Z,1005.21
2023-03-12T09:19:01.595Z,1005.3
2023-03-12T09:20:46.612Z,1005.39
2023-03-12T09:22:31.622Z,1005.34
2023-03-12T09:24:16.592Z,1005.34
2023-03-12T09:26:01.959Z,1005.24
2023-03-12T09:27:46.628Z,1005.33
2023-03-12T09:29:31.663Z,1005.56
2023-03-12T09:31:16.950Z,1005.63
2023-03-12T09:33:01.611Z,1005.53
2023-03-12T09:34:46.585Z,1005.38
2023-03-12T09:36:31.695Z,1005.42
2023-03-12T09:38:16.653Z,1005.59
2023-03-12T09:40:01.651Z,1005.8
2023-03-12T09:41:46.672Z,1005.71
2023-03-12T09:43:31.910Z,1005.5
2023-03-12T09:45:16.621Z,1005.53
2023-03-12T09:47:01.723Z,1005.5
2023-03-12T09:48:47.674Z,1005.53
2023-03-12T09:50:31.660Z,1005.78
2023-03-12T09:52:16.679Z,1005.57
2023-03-12T09:54:01.635Z,1005.61
2023-03-12T09:55:46.936Z,1005.62
2023-03-12T09:57:31.719Z,1005.79
2023-03-12T09:59:16.644Z,1005.83
2023-03-12T10:01:01.630Z,1005.7
2023-03-12T10:02:46.689Z,1005.74
2023-03-12T10:04:31.734Z,1005.67
2023-03-12T10:06:16.701Z,1005.61
2023-03-12T10:08:07.703Z,1005.69
2023-03-12T10:09:46.670Z,1005.63
2023-03-12T10:11:31.633Z,1005.69
2023-03-12T10:13:16.768Z,1005.55
2023-03-12T10:15:01.657Z,1005.65
2023-03-12T10:16:46.657Z,1005.63
2023-03-12T10:18:31.940Z,1005.61
2023-03-12T10:20:16.653Z,1005.67
2023-03-12T10:22:01.752Z,1005.66
2023-03-12T10:23:46.677Z,1005.57
2023-03-12T10:25:31.658Z,1005.6
2023-03-12T10:27:16.673Z,1005.7
2023-03-12T10:29:01.738Z,1005.68
2023-03-12T10:30:46.662Z,1005.68
2023-03-12T10:32:31.747Z,1005.65
2023-03-12T10:34:16.674Z,1005.72
2023-03-12T10:36:01.697Z,1005.57
2023-03-12T10:37:46.666Z,1005.76
2023-03-12T10:39:31.730Z,1005.75
2023-03-12T10:41:16.670Z,1005.89
2023-03-12T10:43:02.313Z,1005.74
2023-03-12T10:44:46.721Z,1005.79
2023-03-12T10:46:34.355Z,1005.76
2023-03-12T10:48:16.688Z,1005.81
2023-03-12T10:50:01.735Z,1005.73
2023-03-12T10:51:46.664Z,1005.8
2023-03-12T10:53:31.679Z,1005.82
2023-03-12T10:55:17.041Z,1005.78
2023-03-12T10:57:01.705Z,1005.76
2023-03-12T10:58:46.687Z,1005.89
2023-03-12T11:00:31.765Z,1005.83
2023-03-12T11:02:16.707Z,1005.91
2023-03-12T11:04:01.689Z,1005.75
2023-03-12T11:05:46.810Z,1005.82
2023-03-12T11:07:31.697Z,1005.82
2023-03-12T11:09:17.545Z,1005.69
2023-03-12T11:11:01.732Z,1005.78
2023-03-12T11:12:46.715Z,1005.68
2023-03-12T11:14:31.741Z,1005.74
2023-03-12T11:16:16.952Z,1005.71
2023-03-12T11:18:01.698Z,1005.86
2023-03-12T11:19:46.745Z,1005.64
2023-03-12T11:21:31.747Z,1005.63
2023-03-12T11:23:16.721Z,1005.66
2023-03-12T11:25:01.769Z,1005.59
2023-03-12T11:26:46.788Z,1005.59
2023-03-12T11:28:32.132Z,1005.49
2023-03-12T11:30:16.788Z,1005.6
2023-03-12T11:32:01.822Z,1005.54
2023-03-12T11:33:46.765Z,1005.72
2023-03-12T11:35:31.843Z,1005.63
2023-03-12T11:37:16.809Z,1005.48
2023-03-12T11:39:01.757Z,1005.59
2023-03-12T11:40:46.764Z,1005.75
2023-03-12T11:42:31.770Z,1005.72
2023-03-12T11:44:16.755Z,1005.87
2023-03-12T11:46:01.791Z,1005.87
2023-03-12T11:47:46.879Z,1005.78
2023-03-12T11:49:31.766Z,1005.69
2023-03-12T11:51:16.783Z,1005.65
2023-03-12T11:53:01.828Z,1005.73
2023-03-12T11:54:46.781Z,1005.88
2023-03-12T11:56:31.824Z,1005.78
2023-03-12T11:58:16.893Z,1005.71
2023-03-12T12:00:01.789Z,1005.79
2023-03-12T12:01:46.878Z,1005.83
2023-03-12T12:03:31.920Z,1005.79
2023-03-12T12:05:16.799Z,1005.77
2023-03-12T12:07:01.839Z,1005.68
2023-03-12T12:08:46.805Z,1005.71
2023-03-12T12:10:31.774Z,1005.74
2023-03-12T12:12:16.816Z,1005.74
2023-03-12T12:14:01.861Z,1005.71
2023-03-12T12:15:46.807Z,1005.79
2023-03-12T12:17:31.841Z,1005.69
2023-03-12T12:19:16.887Z,1005.66
2023-03-12T12:21:01.827Z,1005.65
2023-03-12T12:22:46.824Z,1005.54
2023-03-12T12:24:31.862Z,1005.67
2023-03-12T12:26:16.810Z,1005.6
2023-03-12T12:28:01.821Z,1005.77
2023-03-12T12:29:46.856Z,1005.61
2023-03-12T12:31:31.837Z,1005.6
2023-03-12T12:33:16.828Z,1005.48
2023-03-12T12:35:01.930Z,1005.47
2023-03-12T12:36:46.820Z,1005.54
2023-03-12T12:38:31.847Z,1005.38
2023-03-12T12:40:17.191Z,1005.33
2023-03-12T12:42:01.890Z,1005.34
2023-03-12T12:43:46.839Z,1005.3
2023-03-12T12:45:31.875Z,1005.19
2023-03-12T12:47:16.860Z,1005.16
2023-03-12T12:49:01.848Z,1005.21
2023-03-12T12:50:46.925Z,1005.12
2023-03-12T12:52:31.855Z,1005.16
2023-03-12T12:54:16.865Z,1005.18
2023-03-12T12:56:01.872Z,1005.19
2023-03-12T12:57:46.858Z,1005.14
2023-03-12T12:59:31.856Z,1004.98
2023-03-12T13:01:16.990Z,1005.06
2023-03-12T13:03:01.906Z,1005.1
2023-03-12T13:04:46.873Z,1005.15
2023-03-12T13:06:31.901Z,1005.14
2023-03-12T13:08:16.865Z,1005.16
2023-03-12T13:10:01.867Z,1005.08
2023-03-12T13:11:46.946Z,1005.03
2023-03-12T13:13:31.880Z,1005.08
2023-03-12T13:15:16.855Z,1004.99
2023-03-12T13:17:01.911Z,1005.06
2023-03-12T13:18:46.857Z,1004.98
2023-03-12T13:20:31.880Z,1004.95
2023-03-12T13:22:16.964Z,1004.97
2023-03-12T13:24:01.883Z,1004.93
2023-03-12T13:25:46.888Z,1004.87
2023-03-12T13:27:31.909Z,1005.01
2023-03-12T13:29:16.923Z,1004.9
2023-03-12T13:31:01.967Z,1004.88
2023-03-12T13:32:47.002Z,1004.99
2023-03-12T13:34:31.965Z,1004.85
2023-03-12T13:36:17.011Z,1004.81
2023-03-12T13:38:01.950Z,1004.86
2023-03-12T13:39:46.908Z,1004.86
2023-03-12T13:41:32.012Z,1004.9
2023-03-12T13:43:16.925Z,1004.76
2023-03-12T13:45:01.901Z,1004.79
2023-03-12T13:46:47.027Z,1004.66
2023-03-12T13:48:31.990Z,1004.67
2023-03-12T13:50:16.910Z,1004.69
2023-03-12T13:52:01.955Z,1004.67
2023-03-12T13:53:46.980Z,1004.6
2023-03-12T13:55:31.912Z,1004.64
2023-03-12T13:57:16.924Z,1004.6
2023-03-12T13:59:02.555Z,1004.54
2023-03-12T14:00:46.920Z,1004.54
2023-03-12T14:02:32.312Z,1004.65
2023-03-12T14:04:17.055Z,1004.61
2023-03-12T14:06:01.920Z,1004.55
2023-03-12T14:07:47.368Z,1004.55
2023-03-12T14:09:32.056Z,1004.59
2023-03-12T14:11:16.945Z,1004.51
2023-03-12T14:13:01.954Z,1004.49
2023-03-12T14:14:46.965Z,1004.37
2023-03-12T14:16:32.054Z,1004.52
2023-03-12T14:18:16.961Z,1004.43
2023-03-12T14:20:02.395Z,1004.52
2023-03-12T14:21:46.972Z,1004.55
2023-03-12T14:23:31.976Z,1004.58
2023-03-12T14:25:17.038Z,1004.62
2023-03-12T14:27:01.976Z,1004.63
2023-03-12T14:28:47.639Z,1004.42
2023-03-12T14:30:31.973Z,1004.42
2023-03-12T14:32:16.995Z,1004.61
2023-03-12T14:34:02.282Z,1004.63
2023-03-12T14:35:47.104Z,1004.71
2023-03-12T14:37:31.967Z,1004.75
2023-03-12T14:39:16.995Z,1004.68
2023-03-12T14:41:02.161Z,1004.56
2023-03-12T14:42:47.257Z,1004.75
2023-03-12T14:44:32.001Z,1004.72
2023-03-12T14:46:17.080Z,1004.71
2023-03-12T14:48:02.012Z,1004.75
2023-03-12T14:49:47.301Z,1004.82
2023-03-12T14:51:32.163Z,1004.9
2023-03-12T14:53:16.969Z,1004.76
2023-03-12T14:55:01.985Z,1004.79
2023-03-12T14:56:47.401Z,1004.84
2023-03-12T14:58:32.028Z,1004.82
2023-03-12T15:00:17.310Z,1004.83
2023-03-12T15:02:02.123Z,1004.77
2023-03-12T15:03:46.978Z,1004.88
2023-03-12T15:05:31.998Z,1004.84
2023-03-12T15:07:17.035Z,1004.86
2023-03-12T15:09:02.043Z,1004.91
2023-03-12T15:10:46.990Z,1004.88
2023-03-12T15:12:32.076Z,1004.91
2023-03-12T15:14:16.997Z,1004.99
2023-03-12T15:16:02.113Z,1004.89
2023-03-12T15:17:47.035Z,1005
2023-03-12T15:19:31.995Z,1004.91
2023-03-12T15:21:17.000Z,1004.99
2023-03-12T15:23:04.352Z,1005.01
2023-03-12T15:24:46.998Z,1004.97
2023-03-12T15:26:31.987Z,1005.02
2023-03-12T15:28:17.101Z,1004.93
2023-03-12T15:30:02.028Z,1004.94
2023-03-12T15:31:47.074Z,1004.85
2023-03-12T15:33:32.090Z,1004.96
2023-03-12T15:35:17.086Z,1004.88
2023-03-12T15:37:02.006Z,1004.9
2023-03-12T15:38:47.091Z,1004.91
2023-03-12T15:40:32.022Z,1004.88
2023-03-12T15:42:17.060Z,1004.91
2023-03-12T15:44:02.096Z,1005.02
2023-03-12T15:45:47.184Z,1005.08
2023-03-12T15:47:32.041Z,1005.06
2023-03-12T15:49:17.105Z,1005.04
2023-03-12T15:51:02.021Z,1005.04
2023-03-12T15:52:47.035Z,1005.05
2023-03-12T15:54:32.073Z,1005.01
2023-03-12T15:56:17.095Z,1004.89
2023-03-12T15:58:02.062Z,1004.9
2023-03-12T15:59:47.144Z,1004.95
2023-03-12T16:01:32.092Z,1004.93
2023-03-12T16:03:17.053Z,1004.87
2023-03-12T16:05:02.098Z,1004.88
2023-03-12T16:06:47.083Z,1004.82
2023-03-12T16:08:32.089Z,1004.95
2023-03-12T16:10:17.183Z,1004.99
2023-03-12T16:12:02.073Z,1005.06
2023-03-12T16:13:47.067Z,1004.91
2023-03-12T16:15:32.134Z,1005.01
2023-03-12T16:17:17.138Z,1005.02
2023-03-12T16:19:02.117Z,1005.25
2023-03-12T16:20:47.176Z,1005.06
2023-03-12T16:22:32.086Z,1005.15
2023-03-12T16:24:17.376Z,1005.03
2023-03-12T16:26:02.119Z,1005.1
2023-03-12T16:27:47.108Z,1005.08
2023-03-12T16:29:32.092Z,1005.13
2023-03-12T16:31:17.219Z,1005.07
2023-03-12T16:33:02.211Z,1005.24
2023-03-12T16:34:47.120Z,1005.21
2023-03-12T16:36:32.158Z,1005.25
2023-03-12T16:38:17.131Z,1005.13
2023-03-12T16:40:33.570Z,1005.21
2023-03-12T16:41:47.094Z,1005.14
2023-03-12T16:43:32.094Z,1005.16
2023-03-12T16:45:17.122Z,1005.2
2023-03-12T16:47:02.206Z,1005.22
2023-03-12T16:48:47.118Z,1005.13
2023-03-12T16:50:32.103Z,1005.01
2023-03-12T16:52:17.150Z,1005.02
2023-03-12T16:54:09.876Z,1004.94
2023-03-12T16:55:47.141Z,1005.03
2023-03-12T16:57:32.351Z,1004.98
2023-03-12T16:59:17.143Z,1005.08
2023-03-12T17:01:02.236Z,1005.08
2023-03-12T17:02:47.184Z,1005.09
2023-03-12T17:04:32.151Z,1005.06
2023-03-12T17:06:17.115Z,1005.09
2023-03-12T17:08:02.424Z,1005
2023-03-12T17:09:47.185Z,1005.04
2023-03-12T17:11:32.169Z,1005.01
2023-03-12T17:13:17.185Z,1005.03
2023-03-12T17:15:02.135Z,1005.11
2023-03-12T17:16:47.449Z,1005.12
2023-03-12T17:18:32.305Z,1005.07
2023-03-12T17:20:17.151Z,1005.11
2023-03-12T17:22:02.176Z,1005.14
2023-03-12T17:23:47.199Z,1005.1
2023-03-12T17:25:32.161Z,1005.17
2023-03-12T17:27:17.188Z,1005.27
2023-03-12T17:29:02.266Z,1005.15
2023-03-12T17:30:47.208Z,1005.08
2023-03-12T17:32:32.251Z,1005.14
2023-03-12T17:34:17.348Z,1005.24
2023-03-12T17:36:02.265Z,1005.24
2023-03-12T17:37:47.196Z,1005.27
2023-03-12T17:39:32.207Z,1005.45
2023-03-12T17:41:25.814Z,1005.35
2023-03-12T17:43:02.177Z,1005.37
2023-03-12T17:44:47.260Z,1005.37
2023-03-12T17:46:32.290Z,1005.45
2023-03-12T17:48:17.207Z,1005.43
2023-03-12T17:50:02.286Z,1005.42
2023-03-12T17:51:47.196Z,1005.47
2023-03-12T17:53:32.198Z,1005.46
2023-03-12T17:55:17.286Z,1005.46
2023-03-12T17:57:02.227Z,1005.5
2023-03-12T17:58:47.544Z,1005.51
2023-03-12T18:00:32.243Z,1005.39
2023-03-12T18:02:17.204Z,1005.56
2023-03-12T18:04:02.240Z,1005.45
2023-03-12T18:05:47.285Z,1005.41
2023-03-12T18:07:32.228Z,1005.46
2023-03-12T18:09:17.220Z,1005.36
2023-03-12T18:11:02.307Z,1005.43
2023-03-12T18:12:47.228Z,1005.39
2023-03-12T18:14:32.226Z,1005.42
2023-03-12T18:16:17.379Z,1005.44
2023-03-12T18:18:02.252Z,1005.34
2023-03-12T18:19:47.313Z,1005.45
2023-03-12T18:21:32.315Z,1005.56
2023-03-12T18:23:17.286Z,1005.58
2023-03-12T18:25:02.259Z,1005.53
2023-03-12T18:26:47.298Z,1005.62
2023-03-12T18:28:32.256Z,1005.53
2023-03-12T18:30:17.263Z,1005.53
2023-03-12T18:32:02.298Z,1005.61
2023-03-12T18:33:47.275Z,1005.66
2023-03-12T18:35:32.268Z,1005.69
2023-03-12T18:37:17.602Z,1005.63
2023-03-12T18:39:02.278Z,1005.55
2023-03-12T18:40:47.298Z,1005.62
2023-03-12T18:42:32.335Z,1005.67
2023-03-12T18:44:17.266Z,1005.62
2023-03-12T18:46:02.277Z,1005.58
2023-03-12T18:47:47.327Z,1005.54
2023-03-12T18:49:32.279Z,1005.56
2023-03-12T18:51:17.275Z,1005.55
2023-03-12T18:53:02.365Z,1005.5
2023-03-12T18:54:47.322Z,1005.52
2023-03-12T18:56:32.317Z,1005.52
2023-03-12T18:58:17.319Z,1005.5
2023-03-12T19:00:02.350Z,1005.39
2023-03-12T19:01:47.304Z,1005.44
2023-03-12T19:03:32.333Z,1005.4
2023-03-12T19:05:17.331Z,1005.38
2023-03-12T19:07:02.302Z,1005.32
2023-03-12T19:08:47.386Z,1005.36
2023-03-12T19:10:32.324Z,1005.36
2023-03-12T19:12:17.312Z,1005.37
2023-03-12T19:14:02.364Z,1005.36
2023-03-12T19:15:47.409Z,1005.37
2023-03-12T19:17:32.329Z,1005.32
2023-03-12T19:19:17.397Z,1005.42
2023-03-12T19:21:02.347Z,1005.38
2023-03-12T19:22:47.332Z,1005.28
2023-03-12T19:24:32.389Z,1005.33
2023-03-12T19:26:17.332Z,1005.37
2023-03-12T19:28:02.341Z,1005.36
2023-03-12T19:29:47.410Z,1005.33
2023-03-12T19:31:32.421Z,1005.39
2023-03-12T19:33:17.381Z,1005.23
2023-03-12T19:35:02.360Z,1005.4
2023-03-12T19:36:47.386Z,1005.32
2023-03-12T19:38:32.353Z,1005.26
2023-03-12T19:40:17.441Z,1005.23
2023-03-12T19:42:02.362Z,1005.32
2023-03-12T19:43:47.339Z,1005.25
2023-03-12T19:45:32.387Z,1005.14
2023-03-12T19:47:18.394Z,1005.23
2023-03-12T19:49:02.367Z,1005.08
2023-03-12T19:50:47.435Z,1005.11
2023-03-12T19:52:32.422Z,1005.14
2023-03-12T19:54:17.679Z,1005.11
2023-03-12T19:56:02.424Z,1005.1
2023-03-12T19:57:47.386Z,1005.06
2023-03-12T19:59:32.410Z,1005.06
2023-03-12T20:01:17.432Z,1005.07
2023-03-12T20:03:02.553Z,1005.02
2023-03-12T20:04:47.393Z,1005
2023-03-12T20:06:32.426Z,1005.04
2023-03-12T20:08:17.388Z,1005.05
2023-03-12T20:10:02.404Z,1005.01
2023-03-12T20:11:47.439Z,1005.06
2023-03-12T20:13:32.420Z,1004.96
2023-03-12T20:15:17.432Z,1004.89
2023-03-12T20:17:02.482Z,1004.81
2023-03-12T20:18:47.409Z,1004.82
2023-03-12T20:20:32.730Z,1004.87
2023-03-12T20:22:17.475Z,1004.91
2023-03-12T20:24:02.413Z,1004.86
2023-03-12T20:25:47.438Z,1004.82
2023-03-12T20:27:32.559Z,1004.79
2023-03-12T20:29:17.403Z,1004.77
2023-03-12T20:31:02.405Z,1004.83
2023-03-12T20:32:47.514Z,1004.88
2023-03-12T20:34:32.405Z,1004.77
2023-03-12T20:36:17.435Z,1004.7
2023-03-12T20:38:02.521Z,1004.68
2023-03-12T20:39:47.409Z,1004.81
2023-03-12T20:41:32.420Z,1004.73
2023-03-12T20:43:17.482Z,1004.68
2023-03-12T20:45:02.448Z,1004.59
2023-03-12T20:46:47.462Z,1004.66
2023-03-12T20:48:32.510Z,1004.67
2023-03-12T20:50:17.454Z,1004.51
2023-03-12T20:52:02.728Z,1004.49
2023-03-12T20:53:47.490Z,1004.53
2023-03-12T20:55:32.442Z,1004.48
2023-03-12T20:57:17.464Z,1004.46
2023-03-12T20:59:02.536Z,1004.36
2023-03-12T21:00:47.452Z,1004.41
2023-03-12T21:02:32.498Z,1004.38
2023-03-12T21:04:17.504Z,1004.37
2023-03-12T21:06:02.485Z,1004.31
2023-03-12T21:07:47.478Z,1004.27
2023-03-12T21:09:32.539Z,1004.17
2023-03-12T21:11:17.505Z,1004.2
2023-03-12T21:13:02.479Z,1004.02
2023-03-12T21:14:47.562Z,1004.09